createdAt,value
2022-10-04T00:01:58.911Z,58.67
2022-10-04T00:04:27.974Z,58.62
2022-10-04T00:06:59.738Z,58.63
2022-10-04T00:09:32.311Z,58.33
2022-10-04T00:12:02.142Z,58.31
2022-10-04T00:14:31.623Z,58.39
2022-10-04T00:16:59.836Z,58.15
2022-10-04T00:19:39.427Z,58.05
2022-10-04T00:22:12.667Z,57.84
2022-10-04T00:25:18.553Z,57.54
2022-10-04T00:28:26.588Z,57.46
2022-10-04T00:31:17.766Z,57.35
2022-10-04T00:33:46.389Z,57.41
2022-10-04T00:36:48.424Z,57.26
2022-10-04T00:39:39.450Z,57.23
2022-10-04T00:42:30.595Z,57.39
2022-10-04T00:44:59.621Z,57.35
2022-10-04T00:47:31.961Z,57.32
2022-10-04T00:50:04.945Z,57.11
2022-10-04T00:52:34.204Z,56.87
2022-10-04T00:55:05.249Z,56.92
2022-10-04T00:57:37.511Z,56.86
2022-10-04T01:00:07.411Z,56.87
2022-10-04T01:02:39.283Z,56.82
2022-10-04T01:05:09.425Z,56.84
2022-10-04T01:07:39.477Z,56.77
2022-10-04T01:10:09.859Z,56.71
2022-10-04T01:12:42.658Z,56.50
2022-10-04T01:15:14.150Z,56.66
2022-10-04T01:17:42.240Z,56.73
2022-10-04T01:20:29.972Z,56.79
2022-10-04T01:22:59.575Z,56.93
2022-10-04T01:25:48.323Z,56.99
2022-10-04T01:28:17.167Z,57.11
2022-10-04T01:30:45.339Z,57.31
2022-10-04T01:33:13.686Z,57.41
2022-10-04T01:35:41.750Z,57.55
2022-10-04T01:38:11.486Z,57.70
2022-10-04T01:40:44.011Z,57.61
2022-10-04T01:43:12.661Z,57.71
2022-10-04T01:45:42.129Z,57.96
2022-10-04T01:48:11.990Z,58.00
2022-10-04T01:50:41.452Z,58.33
2022-10-04T01:53:15.038Z,58.15
2022-10-04T01:55:43.518Z,58.13
2022-10-04T01:58:13.233Z,57.86
2022-10-04T02:00:52.442Z,57.69
2022-10-04T02:03:22.245Z,57.65
2022-10-04T02:05:52.301Z,57.58
2022-10-04T02:08:25.337Z,57.51
2022-10-04T02:10:54.920Z,57.49
2022-10-04T02:13:22.953Z,57.59
2022-10-04T02:15:51.079Z,57.70
2022-10-04T02:18:21.053Z,57.54
2022-10-04T02:20:49.584Z,57.59
2022-10-04T02:23:17.998Z,57.43
2022-10-04T02:25:47.521Z,57.42
2022-10-04T02:28:15.801Z,57.35
2022-10-04T02:31:05.202Z,57.40
2022-10-04T02:33:32.364Z,57.49
2022-10-04T02:36:00.384Z,57.36
2022-10-04T02:38:32.122Z,57.22
2022-10-04T02:41:04.544Z,57.24
2022-10-04T02:43:35.382Z,57.36
2022-10-04T02:46:07.399Z,57.30
2022-10-04T02:48:38.778Z,57.48
2022-10-04T02:51:13.310Z,57.76
2022-10-04T02:53:48.350Z,57.77
2022-10-04T02:56:18.482Z,57.83
2022-10-04T02:58:46.593Z,57.87
2022-10-04T03:01:18.384Z,58.00
2022-10-04T03:03:46.993Z,57.75
2022-10-04T03:06:16.064Z,57.84
2022-10-04T03:08:46.858Z,57.93
2022-10-04T03:11:15.943Z,58.30
2022-10-04T03:13:47.624Z,58.36
2022-10-04T03:16:15.839Z,58.65
2022-10-04T03:18:43.876Z,58.99
2022-10-04T03:21:13.623Z,59.14
2022-10-04T03:23:41.680Z,59.21
2022-10-04T03:26:17.647Z,59.10
2022-10-04T03:28:47.107Z,59.30
2022-10-04T03:31:15.288Z,59.37
2022-10-04T03:33:44.147Z,59.75
2022-10-04T03:36:14.233Z,59.97
2022-10-04T03:38:42.258Z,60.02
2022-10-04T03:41:10.668Z,60.49
2022-10-04T03:43:40.701Z,60.68
2022-10-04T03:46:10.246Z,60.92
2022-10-04T03:48:39.377Z,61.29
2022-10-04T03:51:09.046Z,61.46
2022-10-04T03:53:43.212Z,61.68
2022-10-04T03:56:13.463Z,62.04
2022-10-04T03:58:41.565Z,62.16
2022-10-04T04:01:17.858Z,62.54
2022-10-04T04:03:59.574Z,62.57
2022-10-04T04:06:27.913Z,62.72
2022-10-04T04:08:55.929Z,63.03
2022-10-04T04:11:25.791Z,62.82
2022-10-04T04:13:58.409Z,62.64
2022-10-04T04:16:28.549Z,62.68
2022-10-04T04:18:59.061Z,62.65
2022-10-04T04:21:27.246Z,62.47
2022-10-04T04:23:56.916Z,62.51
2022-10-04T04:26:28.264Z,62.47
2022-10-04T04:28:57.231Z,62.44
2022-10-04T04:31:27.492Z,62.32
2022-10-04T04:34:00.665Z,62.41
2022-10-04T04:36:29.429Z,62.49
2022-10-04T04:39:25.819Z,62.29
2022-10-04T04:41:53.977Z,62.35
2022-10-04T04:44:21.978Z,62.42
2022-10-04T04:46:51.605Z,62.45
2022-10-04T04:49:19.764Z,62.30
2022-10-04T04:51:50.439Z,62.53
2022-10-04T04:54:18.861Z,62.49
2022-10-04T04:56:48.993Z,62.53
2022-10-04T04:59:18.781Z,62.76
2022-10-04T05:01:47.529Z,62.69
2022-10-04T05:04:21.295Z,62.89
2022-10-04T05:06:50.393Z,62.91
2022-10-04T05:09:25.259Z,62.76
2022-10-04T05:11:53.811Z,62.82
2022-10-04T05:14:21.882Z,62.81
2022-10-04T05:16:51.067Z,62.76
2022-10-04T05:19:22.259Z,62.74
2022-10-04T05:21:51.175Z,62.84
2022-10-04T05:24:25.577Z,62.81
2022-10-04T05:26:54.427Z,62.57
2022-10-04T05:29:24.119Z,62.78
2022-10-04T05:31:57.356Z,62.68
2022-10-04T05:34:27.971Z,62.61
2022-10-04T05:37:20.793Z,62.59
2022-10-04T05:39:51.373Z,62.46
2022-10-04T05:42:23.455Z,62.57
2022-10-04T05:44:52.924Z,62.63
2022-10-04T05:47:24.042Z,62.50
2022-10-04T05:49:54.504Z,62.23
2022-10-04T05:52:30.614Z,62.50
2022-10-04T05:55:19.272Z,62.56
2022-10-04T05:57:52.771Z,62.54
2022-10-04T06:00:21.660Z,62.62
2022-10-04T06:03:25.953Z,62.80
2022-10-04T06:05:56.419Z,62.80
2022-10-04T06:08:29.714Z,62.76
2022-10-04T06:11:03.927Z,62.75
2022-10-04T06:13:53.580Z,62.53
2022-10-04T06:16:25.073Z,62.52
2022-10-04T06:19:13.419Z,62.40
2022-10-04T06:21:47.418Z,62.47
2022-10-04T06:24:17.253Z,62.43
2022-10-04T06:26:48.267Z,62.36
2022-10-04T06:29:17.681Z,62.44
2022-10-04T06:31:57.360Z,62.51
2022-10-04T06:34:48.130Z,62.59
2022-10-04T06:37:24.599Z,62.45
2022-10-04T06:40:09.963Z,62.41
2022-10-04T06:42:48.468Z,62.46
2022-10-04T06:45:40.233Z,62.42
2022-10-04T06:48:43.105Z,62.30
2022-10-04T06:51:16.110Z,62.39
2022-10-04T06:53:52.084Z,62.28
2022-10-04T06:56:27.267Z,62.33
2022-10-04T06:59:35.066Z,62.19
2022-10-04T07:02:05.505Z,62.32
2022-10-04T07:05:06.299Z,62.11
2022-10-04T07:07:37.734Z,62.22
2022-10-04T07:10:25.691Z,62.44
2022-10-04T07:13:08.006Z,62.22
2022-10-04T07:15:43.176Z,62.17
2022-10-04T07:18:15.174Z,62.12
2022-10-04T07:20:43.292Z,62.18
2022-10-04T07:23:17.702Z,62.03
2022-10-04T07:25:48.000Z,62.25
2022-10-04T07:28:34.340Z,62.06
2022-10-04T07:31:05.997Z,62.16
2022-10-04T07:33:36.752Z,62.00
2022-10-04T07:36:08.136Z,61.68
2022-10-04T07:38:38.781Z,61.75
2022-10-04T07:41:10.701Z,61.54
2022-10-04T07:43:48.532Z,61.58
2022-10-04T07:46:21.715Z,61.25
2022-10-04T07:48:50.172Z,61.29
2022-10-04T07:51:25.411Z,61.13
2022-10-04T07:53:55.915Z,61.13
2022-10-04T07:56:28.164Z,61.00
2022-10-04T07:59:02.099Z,60.98
2022-10-04T08:01:32.133Z,60.73
2022-10-04T08:04:07.670Z,60.53
2022-10-04T08:06:37.635Z,60.62
2022-10-04T08:09:20.911Z,60.53
2022-10-04T08:11:55.438Z,60.08
2022-10-04T08:14:28.372Z,60.19
2022-10-04T08:17:03.722Z,59.91
2022-10-04T08:19:39.394Z,59.55
2022-10-04T08:22:16.705Z,59.60
2022-10-04T08:24:53.638Z,59.70
2022-10-04T08:27:33.998Z,59.54
2022-10-04T08:30:12.795Z,59.43
2022-10-04T08:32:47.283Z,59.47
2022-10-04T08:35:41.513Z,59.37
2022-10-04T08:38:36.836Z,59.43
2022-10-04T08:41:50.868Z,59.12
2022-10-04T08:44:49.367Z,58.99
2022-10-04T08:47:51.121Z,59.14
2022-10-04T08:50:41.147Z,58.84
2022-10-04T08:53:38.922Z,58.95
2022-10-04T08:56:12.292Z,59.00
2022-10-04T08:59:09.802Z,59.07
2022-10-04T09:01:54.985Z,58.89
2022-10-04T09:04:48.108Z,59.35
2022-10-04T09:07:33.700Z,59.43
2022-10-04T09:10:25.234Z,59.21
2022-10-04T09:13:02.072Z,59.14
2022-10-04T09:15:54.133Z,59.59
2022-10-04T09:18:33.902Z,59.31
2022-10-04T09:21:04.940Z,58.94
2022-10-04T09:24:11.920Z,59.16
2022-10-04T09:26:46.092Z,59.01
2022-10-04T09:29:32.920Z,58.68
2022-10-04T09:32:32.151Z,58.81
2022-10-04T09:35:19.313Z,59.02
2022-10-04T09:37:59.439Z,58.53
2022-10-04T09:41:03.877Z,58.73
2022-10-04T09:43:59.790Z,58.70
2022-10-04T09:46:54.493Z,58.56
2022-10-04T09:49:37.891Z,58.62
2022-10-04T09:52:14.296Z,58.59
2022-10-04T09:55:15.478Z,58.29
2022-10-04T09:57:58.792Z,58.40
2022-10-04T10:00:27.698Z,58.48
2022-10-04T10:03:04.875Z,58.59
2022-10-04T10:05:40.783Z,58.45
2022-10-04T10:08:16.811Z,58.56
2022-10-04T10:11:07.229Z,59.05
2022-10-04T10:14:16.978Z,58.63
2022-10-04T10:16:54.144Z,58.91
2022-10-04T10:19:46.001Z,58.99
2022-10-04T10:22:26.933Z,59.00
2022-10-04T10:25:34.843Z,58.82
2022-10-04T10:28:14.946Z,58.49
2022-10-04T10:30:55.856Z,57.91
2022-10-04T10:33:38.611Z,57.86
2022-10-04T10:36:20.099Z,57.57
2022-10-04T10:39:24.084Z,57.21
2022-10-04T10:42:06.689Z,57.07
2022-10-04T10:44:50.896Z,56.63
2022-10-04T10:47:36.662Z,56.51
2022-10-04T10:50:16.601Z,56.02
2022-10-04T10:53:29.333Z,55.98
2022-10-04T10:56:29.389Z,56.10
2022-10-04T10:59:43.124Z,56.05
2022-10-04T11:02:50.381Z,56.09
2022-10-04T11:05:45.440Z,55.85
2022-10-04T11:08:30.310Z,55.21
2022-10-04T11:11:05.031Z,54.88
2022-10-04T11:13:56.733Z,54.53
2022-10-04T11:16:43.300Z,54.41
2022-10-04T11:19:48.879Z,54.50
2022-10-04T11:22:44.877Z,54.11
2022-10-04T11:25:41.387Z,54.08
2022-10-04T11:28:15.103Z,53.35
2022-10-04T11:31:02.911Z,53.37
2022-10-04T11:33:56.139Z,53.68
2022-10-04T11:36:43.121Z,53.78
2022-10-04T11:39:35.529Z,53.80
2022-10-04T11:42:08.755Z,53.30
2022-10-04T11:44:47.486Z,53.56
2022-10-04T11:47:24.024Z,53.85
2022-10-04T11:50:00.218Z,53.49
2022-10-04T11:53:03.425Z,53.51
2022-10-04T11:55:57.442Z,53.18
2022-10-04T11:58:32.831Z,53.52
2022-10-04T12:01:40.759Z,53.43
2022-10-04T12:04:41.391Z,53.31
2022-10-04T12:07:28.822Z,53.71
2022-10-04T12:10:02.132Z,53.69
2022-10-04T12:12:39.084Z,53.67
2022-10-04T12:15:41.043Z,53.54
2022-10-04T12:18:36.538Z,53.97
2022-10-04T12:21:38.937Z,53.89
2022-10-04T12:24:11.831Z,54.05
2022-10-04T12:27:13.484Z,53.91
2022-10-04T12:30:24.066Z,54.76
2022-10-04T12:33:03.613Z,54.69
2022-10-04T12:35:36.976Z,54.99
2022-10-04T12:38:15.435Z,55.00
2022-10-04T12:40:44.712Z,55.03
2022-10-04T12:43:18.215Z,55.48
2022-10-04T12:45:58.169Z,55.55
2022-10-04T12:48:33.194Z,55.53
2022-10-04T12:51:06.679Z,55.61
2022-10-04T12:53:40.223Z,55.28
2022-10-04T12:56:11.312Z,55.33
2022-10-04T12:59:09.197Z,55.42
2022-10-04T13:01:42.912Z,55.41
2022-10-04T13:04:29.230Z,55.33
2022-10-04T13:07:21.843Z,55.43
2022-10-04T13:10:19.315Z,55.85
2022-10-04T13:13:13.345Z,56.00
2022-10-04T13:18:35.771Z,55.91
2022-10-04T13:21:04.992Z,56.26
2022-10-04T13:23:47.202Z,56.04
2022-10-04T13:26:29.334Z,56.09
2022-10-04T13:29:04.030Z,56.28
2022-10-04T13:31:35.007Z,56.58
2022-10-04T13:34:11.957Z,56.48
2022-10-04T13:36:48.987Z,56.80
2022-10-04T13:39:26.078Z,56.54
2022-10-04T13:42:01.953Z,56.49
2022-10-04T13:44:44.409Z,56.67
2022-10-04T13:47:32.929Z,56.40
2022-10-04T13:50:10.396Z,55.89
2022-10-04T13:53:02.383Z,55.65
2022-10-04T13:55:51.381Z,55.95
2022-10-04T13:58:27.389Z,55.69
2022-10-04T14:01:06.711Z,55.36
2022-10-04T14:03:43.766Z,55.48
2022-10-04T14:06:26.710Z,55.88
2022-10-04T14:09:43.488Z,55.86
2022-10-04T14:12:37.201Z,56.23
2022-10-04T14:15:25.920Z,56.25
2022-10-04T14:18:15.455Z,56.03
2022-10-04T14:21:07.273Z,56.13
2022-10-04T14:24:14.246Z,56.28
2022-10-04T14:27:22.483Z,56.38
2022-10-04T14:30:01.611Z,56.15
2022-10-04T14:32:52.337Z,56.21
2022-10-04T14:35:25.493Z,56.42
2022-10-04T14:38:14.309Z,56.49
2022-10-04T14:41:10.873Z,56.30
2022-10-04T14:44:14.239Z,56.16
2022-10-04T14:46:47.903Z,56.35
2022-10-04T14:49:20.421Z,56.37
2022-10-04T14:52:04.366Z,56.23
2022-10-04T14:54:42.000Z,56.67
2022-10-04T14:57:12.400Z,56.58
2022-10-04T15:00:06.753Z,56.90
2022-10-04T15:03:13.787Z,57.23
2022-10-04T15:05:47.631Z,57.29
2022-10-04T15:08:41.324Z,57.70
2022-10-04T15:11:09.992Z,57.92
2022-10-04T15:13:40.905Z,57.57
2022-10-04T15:16:21.887Z,57.85
2022-10-04T15:18:55.012Z,58.10
2022-10-04T15:21:45.657Z,58.55
2022-10-04T15:24:46.687Z,58.62
2022-10-04T15:27:43.010Z,58.56
2022-10-04T15:30:20.854Z,59.14
2022-10-04T15:32:54.911Z,59.03
2022-10-04T15:35:27.284Z,59.36
2022-10-04T15:37:58.869Z,59.45
2022-10-04T15:40:31.720Z,59.86
2022-10-04T15:43:06.586Z,60.05
2022-10-04T15:45:52.919Z,59.96
2022-10-04T15:48:33.248Z,60.37
2022-10-04T15:51:04.922Z,60.16
2022-10-04T15:53:46.901Z,60.19
2022-10-04T15:56:22.922Z,60.18
2022-10-04T15:59:29.359Z,60.24
2022-10-04T16:02:08.920Z,60.43
2022-10-04T16:04:45.206Z,60.56
2022-10-04T16:07:48.292Z,60.87
2022-10-04T16:10:20.203Z,60.93
2022-10-04T16:13:04.552Z,61.30
2022-10-04T16:15:33.474Z,61.53
2022-10-04T16:18:16.959Z,61.63
2022-10-04T16:21:01.877Z,61.44
2022-10-04T16:23:32.611Z,61.63
2022-10-04T16:26:02.179Z,61.78
2022-10-04T16:28:56.255Z,61.92
2022-10-04T16:31:28.062Z,62.02
2022-10-04T16:34:03.498Z,61.86
2022-10-04T16:36:46.830Z,62.03
2022-10-04T16:39:31.643Z,61.92
2022-10-04T16:42:01.056Z,62.20
2022-10-04T16:44:33.735Z,62.17
2022-10-04T16:47:03.007Z,62.40
2022-10-04T16:49:37.599Z,62.31
2022-10-04T16:52:40.137Z,62.41
2022-10-04T16:55:38.823Z,62.47
2022-10-04T16:58:52.754Z,62.68
2022-10-04T17:01:48.114Z,62.74
2022-10-04T17:04:44.719Z,63.02
2022-10-04T17:07:23.274Z,62.79
2022-10-04T17:09:55.971Z,63.06
2022-10-04T17:12:27.285Z,62.98
2022-10-04T17:15:09.234Z,63.15
2022-10-04T17:17:45.630Z,63.21
2022-10-04T17:20:30.155Z,63.09
2022-10-04T17:23:12.721Z,63.40
2022-10-04T17:25:44.157Z,63.17
2022-10-04T17:28:21.498Z,63.33
2022-10-04T17:30:53.302Z,63.31
2022-10-04T17:33:25.197Z,63.41
2022-10-04T17:36:01.772Z,63.26
2022-10-04T17:38:37.788Z,63.03
2022-10-04T17:41:13.191Z,63.09
2022-10-04T17:43:44.694Z,63.12
2022-10-04T17:46:16.716Z,63.25
2022-10-04T17:49:04.065Z,63.11
2022-10-04T17:51:57.675Z,63.45
2022-10-04T17:54:45.620Z,63.74
2022-10-04T17:57:22.955Z,64.12
2022-10-04T17:59:54.100Z,64.10
2022-10-04T18:02:25.282Z,63.83
2022-10-04T18:04:55.226Z,63.63
2022-10-04T18:07:25.391Z,63.92
2022-10-04T18:09:55.642Z,64.20
2022-10-04T18:12:27.515Z,64.11
2022-10-04T18:15:01.927Z,64.05
2022-10-04T18:17:33.732Z,64.10
2022-10-04T18:20:22.514Z,64.06
2022-10-04T18:22:58.224Z,63.85
2022-10-04T18:25:28.367Z,63.80
2022-10-04T18:28:02.344Z,63.62
2022-10-04T18:30:30.662Z,63.53
2022-10-04T18:32:58.772Z,63.71
2022-10-04T18:35:28.020Z,64.07
2022-10-04T18:37:57.359Z,63.48
2022-10-04T18:40:28.582Z,63.35
2022-10-04T18:42:58.251Z,63.51
2022-10-04T18:45:28.315Z,63.30
2022-10-04T18:47:57.355Z,63.29
2022-10-04T18:50:35.363Z,63.09
2022-10-04T18:53:19.722Z,62.92
2022-10-04T18:55:53.077Z,63.05
2022-10-04T18:58:44.842Z,62.83
2022-10-04T19:01:53.401Z,62.96
2022-10-04T19:04:23.838Z,62.75
2022-10-04T19:06:52.005Z,62.87
2022-10-04T19:09:22.657Z,62.49
2022-10-04T19:11:54.165Z,62.68
2022-10-04T19:14:26.513Z,62.77
2022-10-04T19:16:57.278Z,62.43
2022-10-04T19:19:44.630Z,62.69
2022-10-04T19:22:19.762Z,62.64
2022-10-04T19:25:08.563Z,62.48
2022-10-04T19:27:39.704Z,62.48
2022-10-04T19:30:15.797Z,62.36
2022-10-04T19:32:50.758Z,62.49
2022-10-04T19:35:27.426Z,62.68
2022-10-04T19:38:01.126Z,62.52
2022-10-04T19:40:32.578Z,62.46
2022-10-04T19:43:04.991Z,62.64
2022-10-04T19:45:36.076Z,62.61
2022-10-04T19:48:07.165Z,62.27
2022-10-04T19:50:36.948Z,62.26
2022-10-04T19:53:07.699Z,62.46
2022-10-04T19:55:43.921Z,62.23
2022-10-04T19:58:24.075Z,62.18
2022-10-04T20:00:52.176Z,62.00
2022-10-04T20:03:20.375Z,62.05
2022-10-04T20:05:49.233Z,62.23
2022-10-04T20:08:18.309Z,62.13
2022-10-04T20:10:46.399Z,62.28
2022-10-04T20:13:24.173Z,61.86
2022-10-04T20:15:53.853Z,62.16
2022-10-04T20:19:05.749Z,62.27
2022-10-04T20:21:51.475Z,61.97
2022-10-04T20:24:20.406Z,61.84
2022-10-04T20:27:04.542Z,62.01
2022-10-04T20:30:04.370Z,61.92
2022-10-04T20:32:57.720Z,61.99
2022-10-04T20:36:09.585Z,61.74
2022-10-04T20:39:01.346Z,61.46
2022-10-04T20:42:04.219Z,61.43
2022-10-04T20:44:43.682Z,61.96
2022-10-04T20:47:19.864Z,61.74
2022-10-04T20:49:52.332Z,61.39
2022-10-04T20:52:22.489Z,61.45
2022-10-04T20:54:53.539Z,61.42
2022-10-04T20:57:23.963Z,61.59
2022-10-04T20:59:56.506Z,61.50
2022-10-04T21:02:29.285Z,61.53
2022-10-04T21:05:13.194Z,61.57
2022-10-04T21:07:43.692Z,61.58
2022-10-04T21:10:18.945Z,61.37
2022-10-04T21:12:47.143Z,61.47
2022-10-04T21:15:22.239Z,61.69
2022-10-04T21:18:03.797Z,61.66
2022-10-04T21:20:48.232Z,61.67
2022-10-04T21:23:19.217Z,61.63
2022-10-04T21:25:48.777Z,61.88
2022-10-04T21:28:24.548Z,61.90
2022-10-04T21:30:53.091Z,61.57
2022-10-04T21:33:21.122Z,61.61
2022-10-04T21:35:51.079Z,61.67
2022-10-04T21:38:19.555Z,61.60
2022-10-04T21:40:49.050Z,61.70
2022-10-04T21:43:17.080Z,61.63
2022-10-04T21:45:45.227Z,61.75
2022-10-04T21:48:13.518Z,61.67
2022-10-04T21:50:41.720Z,61.91
2022-10-04T21:53:09.922Z,61.77
2022-10-04T21:55:39.745Z,61.58
2022-10-04T21:58:09.354Z,61.76
2022-10-04T22:00:37.453Z,61.58
2022-10-04T22:03:07.997Z,61.90
2022-10-04T22:05:36.149Z,61.65
2022-10-04T22:08:04.237Z,61.76
2022-10-04T22:10:32.365Z,61.83
2022-10-04T22:13:00.471Z,61.71
2022-10-04T22:15:30.233Z,61.84
2022-10-04T22:17:58.456Z,61.68
2022-10-04T22:20:28.131Z,61.46
2022-10-04T22:22:57.663Z,61.69
2022-10-04T22:25:27.467Z,61.60
2022-10-04T22:27:55.703Z,61.79
2022-10-04T22:30:26.436Z,61.99
2022-10-04T22:33:00.272Z,61.66
2022-10-04T22:35:30.487Z,61.70
2022-10-04T22:37:58.721Z,61.63
2022-10-04T22:40:28.176Z,61.70
2022-10-04T22:43:04.426Z,61.94
2022-10-04T22:45:33.614Z,62.22
2022-10-04T22:48:11.363Z,62.80
2022-10-04T22:50:39.486Z,62.53
2022-10-04T22:53:12.152Z,62.77
2022-10-04T22:55:40.811Z,62.86
2022-10-04T22:58:13.517Z,63.10
2022-10-04T23:00:42.842Z,63.77
2022-10-04T23:03:19.895Z,64.11
2022-10-04T23:05:50.707Z,64.55
2022-10-04T23:08:19.246Z,64.73
2022-10-04T23:10:47.478Z,64.79
2022-10-04T23:13:15.639Z,65.45
2022-10-04T23:15:43.643Z,65.36
2022-10-04T23:18:17.823Z,66.01
2022-10-04T23:20:46.753Z,66.08
2022-10-04T23:23:21.137Z,66.30
2022-10-04T23:25:49.560Z,66.41
2022-10-04T23:28:18.580Z,66.49
2022-10-04T23:30:47.242Z,66.50
2022-10-04T23:33:21.625Z,66.86
2022-10-04T23:35:49.827Z,66.94
2022-10-04T23:38:20.045Z,66.80
2022-10-04T23:40:48.189Z,67.28
2022-10-04T23:43:20.053Z,67.18
2022-10-04T23:45:48.139Z,67.25
2022-10-04T23:48:20.323Z,67.24
2022-10-04T23:50:56.161Z,67.26
2022-10-04T23:53:27.135Z,67.77
2022-10-04T23:55:55.458Z,67.71
2022-10-04T23:58:25.541Z,67.93
